Time;durP1;ratioP1;P1;durP2;ratioP2;P2;SDS_P1;SDS_P2;PMS_P1;PMS_P2;Temp;Humidity;BMP_temperature;BMP_pressure;BME280_temperature;BME280_humidity;BME280_pressure;Samples;Min_cycle;Max_cycle;Signal;HPM_P1;HPM_P2
2022/01/06 00:01:04;;;;;;;9.30;4.00;;;;;;;5.22;57.26;98857.53;5054745;28;20228;-69
2022/01/06 00:03:34;;;;;;;10.13;4.20;;;;;;;5.27;56.73;98841.19;5053320;28;20752;-69
2022/01/06 00:06:05;;;;;;;8.83;4.60;;;;;;;4.91;57.72;98850.13;5054748;28;20572;-67
2022/01/06 00:08:35;;;;;;;11.30;3.90;;;;;;;4.81;58.09;98848.56;5055910;28;21009;-68
2022/01/06 00:11:04;;;;;;;13.87;4.07;;;;;;;4.28;59.18;98842.44;5078185;28;20238;-67
2022/01/06 00:13:47;;;;;;;8.67;4.20;;;;;;;5.73;56.50;98839.03;5064031;28;20224;-67
2022/01/06 00:16:37;;;;;;;9.20;3.83;;;;;;;3.93;60.61;98860.78;5067714;28;20216;-69
2022/01/06 00:24:23;;;;;;;8.97;3.40;;;;;;;4.17;58.98;98839.03;5065791;28;20229;-69
2022/01/06 00:26:51;;;;;;;8.87;4.50;;;;;;;5.19;57.63;98863.16;5066552;28;20722;-69
2022/01/06 00:29:18;;;;;;;12.77;4.47;;;;;;;5.40;57.17;98848.69;5060195;28;20215;-68
2022/01/06 00:31:46;;;;;;;13.67;4.47;;;;;;;4.99;57.92;98867.00;5064499;28;20236;-68
2022/01/06 00:34:13;;;;;;;10.03;5.13;;;;;;;5.54;56.50;98845.41;5063862;28;20752;-65
2022/01/06 00:36:42;;;;;;;7.63;4.10;;;;;;;4.86;58.64;98870.88;5060586;28;20607;-69
2022/01/06 00:39:10;;;;;;;9.43;4.40;;;;;;;5.00;58.56;98871.31;5060065;28;20234;-69
2022/01/06 00:41:38;;;;;;;9.30;3.93;;;;;;;5.73;56.05;98839.03;5049027;28;20229;-68
2022/01/06 00:44:06;;;;;;;11.17;4.53;;;;;;;5.53;57.57;98864.94;5058931;28;20745;-67
2022/01/06 00:46:34;;;;;;;7.73;3.67;;;;;;;5.50;56.81;98854.66;5068183;28;20240;-67
2022/01/06 00:49:02;;;;;;;8.37;3.93;;;;;;;5.16;57.26;98852.91;5064701;28;20226;-65
2022/01/06 00:51:29;;;;;;;9.20;3.83;;;;;;;5.05;58.38;98872.50;5060591;28;20871;-71
2022/01/06 00:53:56;;;;;;;7.40;4.03;;;;;;;5.30;57.79;98855.94;5057072;28;20226;-70
2022/01/06 00:56:23;;;;;;;8.03;3.70;;;;;;;5.67;57.14;98852.06;5057475;28;20234;-67
2022/01/06 00:58:50;;;;;;;11.77;4.97;;;;;;;5.45;57.31;98847.22;5061031;28;20699;-67
2022/01/06 01:01:16;;;;;;;8.80;4.80;;;;;;;5.68;57.76;98837.84;5066151;28;20611;-67
2022/01/06 01:03:44;;;;;;;11.97;4.23;;;;;;;5.69;57.45;98831.56;5068017;28;20223;-67
2022/01/06 01:06:11;;;;;;;10.47;4.30;;;;;;;4.95;59.40;98865.69;5070478;28;20223;-67
2022/01/06 01:08:38;;;;;;;9.03;4.10;;;;;;;5.49;57.90;98845.06;5064291;28;20412;-67
2022/01/06 01:11:06;;;;;;;8.40;4.10;;;;;;;6.24;55.94;98817.69;5057517;28;20237;-67
2022/01/06 01:13:42;;;;;;;8.60;4.13;;;;;;;4.96;59.11;98862.06;5058764;28;20228;-67
2022/01/06 01:16:21;;;;;;;9.83;4.60;;;;;;;4.96;59.50;98878.75;5050192;28;20880;-67
2022/01/06 01:18:49;;;;;;;9.33;4.10;;;;;;;5.76;57.03;98854.53;5039054;28;20842;-67
2022/01/06 01:21:22;;;;;;;11.30;4.20;;;;;;;5.04;58.93;98864.72;5042449;28;20224;-67
2022/01/06 01:23:49;;;;;;;8.43;4.07;;;;;;;5.81;56.65;98854.88;5062771;28;20237;-67
2022/01/06 01:26:16;;;;;;;8.47;3.90;;;;;;;5.88;57.06;98862.19;5063985;28;20227;-67
2022/01/06 01:28:45;;;;;;;10.17;4.30;;;;;;;5.41;57.35;98861.75;5063284;28;20239;-67
2022/01/06 01:33:45;;;;;;;7.13;4.50;;;;;;;4.70;59.26;98887.47;5068263;28;20234;-67
2022/01/06 01:36:13;;;;;;;7.90;4.07;;;;;;;4.42;59.39;98859.53;5064580;28;20343;-64
2022/01/06 01:38:40;;;;;;;8.83;4.10;;;;;;;3.77;61.40;98872.00;5070003;28;20239;-67
2022/01/06 01:41:09;;;;;;;9.03;4.20;;;;;;;4.83;59.86;98897.63;5060358;28;20581;-67
2022/01/06 01:43:36;;;;;;;9.27;3.90;;;;;;;5.69;57.96;98881.84;5046976;28;20238;-67
2022/01/06 01:46:13;;;;;;;15.10;4.10;;;;;;;5.37;58.32;98872.81;5048206;28;20226;-67
2022/01/06 01:48:47;;;;;;;12.83;4.93;;;;;;;2.57;65.09;98857.00;5040052;28;20695;-67
2022/01/06 01:51:14;;;;;;;7.23;3.90;;;;;;;4.31;62.24;98924.78;5038068;28;20223;-67
2022/01/06 01:53:41;;;;;;;11.97;4.43;;;;;;;4.84;60.52;98909.03;5039886;28;20225;-66
2022/01/06 01:56:10;;;;;;;8.17;3.67;;;;;;;1.84;68.27;98854.84;5041599;28;20606;-66
2022/01/06 01:58:39;;;;;;;8.70;3.70;;;;;;;3.74;64.64;98938.28;5045063;28;21028;-66
2022/01/06 02:01:06;;;;;;;15.07;5.07;;;;;;;5.33;59.79;98890.81;5071806;28;20396;-66
2022/01/06 02:03:34;;;;;;;10.17;4.50;;;;;;;3.18;66.16;98933.91;5067937;28;20223;-66
2022/01/06 02:06:01;;;;;;;9.73;4.80;;;;;;;1.90;69.81;98903.44;5072659;28;20231;-66
2022/01/06 02:08:29;;;;;;;12.53;4.23;;;;;;;2.09;68.58;98905.22;5054626;28;20688;-66
2022/01/06 02:10:56;;;;;;;11.60;4.70;;;;;;;2.04;69.60;98931.97;5062781;28;20228;-66
2022/01/06 02:13:28;;;;;;;9.60;3.80;;;;;;;2.08;67.84;98901.78;5070648;28;20226;-66
2022/01/06 02:15:58;;;;;;;7.40;4.47;;;;;;;2.77;66.59;98917.53;5075268;28;20229;-66
2022/01/06 02:18:26;;;;;;;6.03;3.83;;;;;;;4.37;62.32;98889.03;5065115;28;20227;-66
2022/01/06 02:20:53;;;;;;;8.53;4.50;;;;;;;5.96;57.72;98848.97;5061719;28;20237;-66
2022/01/06 02:23:23;;;;;;;8.03;4.17;;;;;;;5.37;58.57;98873.63;5073253;28;20263;-66
2022/01/06 02:25:50;;;;;;;11.57;5.03;;;;;;;5.74;58.03;98874.25;5063013;28;20222;-66
2022/01/06 02:28:24;;;;;;;13.73;4.20;;;;;;;5.52;58.57;98880.97;5069057;28;20222;-66
2022/01/06 02:30:52;;;;;;;15.20;4.63;;;;;;;5.65;57.68;98879.50;5065975;28;20230;-66
2022/01/06 02:33:19;;;;;;;10.67;4.13;;;;;;;5.10;60.06;98920.44;5073308;28;20265;-66
2022/01/06 02:35:48;;;;;;;9.80;4.60;;;;;;;5.19;59.51;98907.25;5065206;28;20233;-66
2022/01/06 02:38:15;;;;;;;8.73;4.17;;;;;;;5.71;58.21;98890.44;5072337;28;20244;-66
2022/01/06 02:40:43;;;;;;;7.87;4.67;;;;;;;5.27;59.65;98909.94;5069817;28;20240;-66
2022/01/06 02:43:13;;;;;;;9.53;3.90;;;;;;;6.09;57.33;98880.25;5066044;28;20219;-66
2022/01/06 02:45:41;;;;;;;8.83;5.17;;;;;;;5.58;58.16;98899.66;5069040;28;20590;-66
2022/01/06 02:48:10;;;;;;;8.70;4.37;;;;;;;4.89;60.21;98920.78;5066090;28;20226;-66
2022/01/06 02:50:39;;;;;;;10.37;5.23;;;;;;;4.98;59.75;98912.94;5060445;28;20243;-66
2022/01/06 02:53:08;;;;;;;10.97;4.30;;;;;;;6.13;56.78;98892.16;5061129;28;20222;-66
2022/01/06 02:55:38;;;;;;;11.97;4.27;;;;;;;6.08;57.13;98900.59;5074115;28;20222;-66
2022/01/06 02:58:05;;;;;;;8.87;4.30;;;;;;;5.68;58.74;98919.84;5061424;28;20875;-66
2022/01/06 03:00:35;;;;;;;6.23;4.10;;;;;;;5.36;59.40;98938.09;5028113;28;20705;-66
2022/01/06 03:03:02;;;;;;;13.87;4.70;;;;;;;6.21;56.80;98900.13;5063212;28;20229;-66
2022/01/06 03:05:29;;;;;;;12.33;4.67;;;;;;;5.55;58.75;98925.63;5072156;28;20223;-66
2022/01/06 03:07:56;;;;;;;10.73;5.00;;;;;;;5.03;58.75;98916.75;5063685;28;20226;-66
2022/01/06 03:10:23;;;;;;;12.57;4.80;;;;;;;5.15;59.68;98948.22;5068005;28;20280;-66
2022/01/06 03:12:50;;;;;;;8.77;4.27;;;;;;;6.00;57.14;98929.69;5063659;28;20230;-66
2022/01/06 03:15:19;;;;;;;8.33;4.43;;;;;;;5.84;58.29;98941.09;5065445;28;20226;-66
2022/01/06 03:17:52;;;;;;;7.60;4.43;;;;;;;4.08;63.00;98985.13;5073962;28;20227;-66
2022/01/06 03:20:21;;;;;;;8.00;3.87;;;;;;;3.80;63.34;98979.03;5063512;28;20231;-66
2022/01/06 03:22:48;;;;;;;9.83;4.50;;;;;;;4.87;59.40;98943.91;5064070;28;20343;-66
2022/01/06 03:25:15;;;;;;;8.87;4.50;;;;;;;5.13;60.48;98979.28;5068330;28;20241;-66
2022/01/06 03:27:43;;;;;;;8.07;4.00;;;;;;;6.46;56.70;98940.72;5071586;28;20223;-66
2022/01/06 03:30:15;;;;;;;10.57;4.07;;;;;;;6.30;57.53;98945.97;5064712;28;20762;-66
2022/01/06 03:32:43;;;;;;;6.83;4.50;;;;;;;5.08;60.72;98987.69;5063596;28;20617;-66
2022/01/06 03:35:13;;;;;;;11.20;4.60;;;;;;;5.97;57.43;98944.09;5061783;28;20736;-66
2022/01/06 03:37:40;;;;;;;10.03;4.03;;;;;;;6.11;57.15;98944.47;5060440;28;20227;-66
2022/01/06 03:40:08;;;;;;;10.37;4.20;;;;;;;5.33;59.58;98986.00;5067206;28;20308;-66
2022/01/06 03:42:36;;;;;;;7.03;4.23;;;;;;;5.57;59.56;98992.41;5052903;28;20228;-66
2022/01/06 03:45:07;;;;;;;8.03;4.00;;;;;;;6.31;57.11;98960.88;5045174;28;20223;-66
2022/01/06 03:47:34;;;;;;;7.63;3.90;;;;;;;5.48;59.42;98980.97;5058414;28;20611;-66
2022/01/06 03:50:01;;;;;;;10.63;4.40;;;;;;;3.71;62.00;98957.03;5067100;28;20226;-66
2022/01/06 03:52:28;;;;;;;8.23;4.30;;;;;;;3.47;63.87;98983.09;5064550;28;20776;-66
2022/01/06 03:54:55;;;;;;;6.67;3.90;;;;;;;2.67;68.25;99007.91;5075414;28;20230;-66
2022/01/06 03:57:22;;;;;;;11.40;4.47;;;;;;;3.09;68.40;99048.09;5068913;28;20234;-66
2022/01/06 03:59:48;;;;;;;8.30;3.80;;;;;;;2.22;70.23;99024.22;5062219;28;20235;-66
2022/01/06 04:02:15;;;;;;;13.47;5.17;;;;;;;2.67;69.88;99050.03;5066522;28;20607;-65
2022/01/06 04:04:43;;;;;;;8.73;4.77;;;;;;;3.30;66.61;99024.19;5080478;28;20234;-66
2022/01/06 04:07:09;;;;;;;9.50;4.53;;;;;;;1.77;71.36;99008.03;5065193;28;20233;-66
2022/01/06 04:09:36;;;;;;;10.50;4.73;;;;;;;1.80;70.86;99005.97;5073236;28;20797;-66
2022/01/06 04:12:04;;;;;;;16.33;5.00;;;;;;;2.96;68.55;99035.19;5065356;28;20223;-66
2022/01/06 04:14:30;;;;;;;8.23;4.87;;;;;;;1.56;72.21;99004.50;5061636;28;20242;-66
2022/01/06 04:16:59;;;;;;;17.40;4.90;;;;;;;1.47;72.68;99020.25;5068157;28;20242;-66
2022/01/06 04:19:27;;;;;;;8.10;4.53;;;;;;;2.44;68.69;99019.66;5067050;28;20219;-66
2022/01/06 04:21:54;;;;;;;8.90;4.77;;;;;;;1.74;71.22;99022.28;5066599;28;20240;-66
2022/01/06 04:24:21;;;;;;;10.00;4.87;;;;;;;2.10;70.79;99034.00;5059735;28;20650;-66
2022/01/06 04:26:48;;;;;;;10.70;4.20;;;;;;;3.61;66.25;98998.44;5067029;28;20248;-66
2022/01/06 04:29:15;;;;;;;12.83;4.97;;;;;;;4.77;62.54;98958.19;5066895;28;20223;-66
2022/01/06 04:31:42;;;;;;;10.20;5.03;;;;;;;3.47;66.82;99020.81;5068107;28;20229;-66
2022/01/06 04:34:09;;;;;;;9.50;5.10;;;;;;;1.53;71.52;98998.69;5069076;28;20228;-66
2022/01/06 04:36:36;;;;;;;10.07;4.93;;;;;;;3.66;65.80;99006.75;5068202;28;20230;-66
2022/01/06 04:39:03;;;;;;;9.80;5.47;;;;;;;2.29;69.72;99030.63;5068801;28;20261;-66
2022/01/06 04:41:30;;;;;;;7.00;4.60;;;;;;;4.51;62.72;98985.38;5069055;28;20219;-66
2022/01/06 04:43:57;;;;;;;10.93;4.63;;;;;;;2.29;69.44;99038.50;5068906;28;20226;-66
2022/01/06 04:46:24;;;;;;;9.93;4.93;;;;;;;1.75;69.39;98998.50;5068066;28;20225;-66
2022/01/06 04:48:51;;;;;;;10.83;5.13;;;;;;;1.95;71.19;99040.63;5068845;28;20235;-66
2022/01/06 04:51:18;;;;;;;9.73;4.90;;;;;;;1.56;72.22;99025.53;5069122;28;20231;-66
2022/01/06 04:53:44;;;;;;;11.57;5.43;;;;;;;2.43;71.61;99074.13;5066636;28;20732;-66
2022/01/06 04:56:11;;;;;;;8.87;5.53;;;;;;;1.36;73.97;99053.50;5066949;28;20230;-66
2022/01/06 04:58:38;;;;;;;9.67;5.07;;;;;;;1.85;73.38;99071.31;5067989;28;20251;-66
2022/01/06 05:02:46;;;;;;;9.00;5.00;;;;;;;0.56;79.11;99041.72;5070504;28;20579;-67
2022/01/06 05:05:14;;;;;;;9.63;5.97;;;;;;;-0.26;80.98;99008.03;5042045;28;20227;-67
2022/01/06 05:07:41;;;;;;;9.70;5.30;;;;;;;-0.37;80.91;99001.03;5043802;28;20236;-67
2022/01/06 05:10:09;;;;;;;9.93;5.27;;;;;;;-0.50;81.92;99011.63;5026631;28;20228;-67
2022/01/06 05:12:41;;;;;;;11.10;5.70;;;;;;;-0.47;81.47;98992.22;5023559;28;20240;-67
2022/01/06 05:15:09;;;;;;;11.60;5.60;;;;;;;0.84;78.87;99026.31;5023670;28;20235;-67
2022/01/06 05:17:36;;;;;;;8.87;5.67;;;;;;;1.56;74.73;99001.88;5023553;28;20238;-67
2022/01/06 05:20:04;;;;;;;11.93;5.80;;;;;;;-0.12;78.72;99001.69;5006451;28;20245;-67
2022/01/06 05:22:32;;;;;;;14.40;6.27;;;;;;;0.39;78.51;99022.09;5021476;28;20231;-67
2022/01/06 05:24:59;;;;;;;10.50;6.10;;;;;;;0.79;78.67;99021.47;5021370;28;20716;-67
2022/01/06 05:27:26;;;;;;;9.90;5.40;;;;;;;0.26;78.61;99026.66;5021161;28;20239;-67
2022/01/06 05:29:53;;;;;;;9.53;5.33;;;;;;;-0.09;78.28;99009.31;5023475;28;20234;-67
2022/01/06 05:32:20;;;;;;;8.67;5.57;;;;;;;0.10;78.09;99023.59;5021139;28;20227;-67
2022/01/06 05:34:47;;;;;;;12.27;5.93;;;;;;;1.14;76.30;99025.56;5023529;28;20235;-67
2022/01/06 05:37:14;;;;;;;11.57;6.30;;;;;;;2.15;73.04;98990.69;5023066;28;20245;-67
2022/01/06 05:39:41;;;;;;;6.63;4.97;;;;;;;0.77;78.03;99051.41;5023774;28;20228;-67
2022/01/06 05:42:08;;;;;;;9.23;5.97;;;;;;;1.62;71.19;99005.78;5023013;28;20231;-67
2022/01/06 05:44:35;;;;;;;12.07;5.80;;;;;;;2.07;72.92;99028.19;5022414;28;20235;-67
2022/01/06 05:47:03;;;;;;;11.37;6.83;;;;;;;2.23;72.97;99028.50;5022891;28;20639;-67
2022/01/06 05:49:30;;;;;;;10.23;6.90;;;;;;;1.77;72.96;99045.69;5023138;28;20231;-67
2022/01/06 05:51:57;;;;;;;10.87;6.20;;;;;;;2.82;69.08;99008.31;5022996;28;20612;-67
2022/01/06 05:54:24;;;;;;;12.70;6.80;;;;;;;1.55;71.61;99030.94;5022647;28;20238;-67
2022/01/06 05:56:51;;;;;;;14.43;7.10;;;;;;;3.19;69.07;99012.00;5023019;28;20239;-67
2022/01/06 05:59:18;;;;;;;12.40;6.33;;;;;;;2.89;68.67;99034.91;5022906;28;20607;-67
2022/01/06 06:01:46;;;;;;;11.73;6.47;;;;;;;3.23;68.26;99023.91;5022507;28;20231;-67
2022/01/06 06:04:16;;;;;;;13.20;6.50;;;;;;;3.98;65.37;98992.28;5021479;28;20245;-67
2022/01/06 06:06:43;;;;;;;13.33;6.30;;;;;;;3.22;65.64;99020.47;5022628;28;20262;-67
2022/01/06 06:09:10;;;;;;;11.10;6.27;;;;;;;3.49;65.17;99025.94;5021764;28;20251;-67
2022/01/06 06:11:37;;;;;;;11.97;6.70;;;;;;;1.56;70.42;99040.47;5022525;28;20228;-67
2022/01/06 06:14:03;;;;;;;11.77;6.57;;;;;;;0.77;74.69;99064.53;5009587;28;20279;-67
2022/01/06 06:16:30;;;;;;;11.47;7.00;;;;;;;0.37;75.36;99052.03;5009244;28;20227;-67
2022/01/06 06:18:58;;;;;;;13.27;6.57;;;;;;;1.05;73.14;99072.78;5009359;28;20939;-67
2022/01/06 06:21:25;;;;;;;12.60;6.50;;;;;;;2.97;68.28;99053.50;5008103;28;20224;-67
2022/01/06 06:23:52;;;;;;;15.53;7.20;;;;;;;3.71;66.48;99041.44;5008526;28;20250;-67
2022/01/06 06:26:21;;;;;;;14.70;8.23;;;;;;;3.56;66.32;99056.06;5009048;28;20630;-67
2022/01/06 06:28:48;;;;;;;14.97;8.07;;;;;;;1.83;70.50;99100.38;5009132;28;20742;-67
2022/01/06 06:31:15;;;;;;;11.27;6.70;;;;;;;3.21;67.91;99092.59;5003296;28;20289;-67
2022/01/06 06:33:42;;;;;;;11.77;7.37;;;;;;;2.04;70.74;99128.44;5035470;28;20223;-67
2022/01/06 06:36:09;;;;;;;11.87;8.57;;;;;;;3.36;67.89;99094.81;5022549;28;20227;-67
2022/01/06 06:38:36;;;;;;;18.53;8.63;;;;;;;2.35;69.11;99117.91;5009025;28;20627;-67
2022/01/06 06:41:03;;;;;;;11.67;6.80;;;;;;;0.91;73.39;99115.91;5008484;28;20232;-67
2022/01/06 06:43:30;;;;;;;13.80;7.40;;;;;;;0.89;74.88;99131.84;5008854;28;20233;-67
2022/01/06 06:45:57;;;;;;;13.13;6.97;;;;;;;0.24;77.14;99115.16;5008715;28;20220;-67
2022/01/06 06:48:25;;;;;;;11.43;6.93;;;;;;;0.89;77.32;99184.34;5008294;28;20237;-67
2022/01/06 06:50:52;;;;;;;11.27;6.97;;;;;;;2.82;70.34;99111.03;5008747;28;20241;-67
2022/01/06 06:53:19;;;;;;;15.13;8.10;;;;;;;1.98;72.50;99150.03;5008734;28;20228;-67
2022/01/06 06:55:46;;;;;;;14.00;8.07;;;;;;;2.10;69.97;99118.22;5007535;28;20228;-67
2022/01/06 06:58:13;;;;;;;11.57;7.57;;;;;;;1.82;72.94;99146.06;5005127;28;20242;-65
2022/01/06 07:00:40;;;;;;;13.70;7.83;;;;;;;2.17;72.62;99134.28;5015518;28;20250;-67
2022/01/06 07:03:07;;;;;;;15.47;8.20;;;;;;;1.89;72.53;99149.84;5008972;28;20774;-67
2022/01/06 07:05:35;;;;;;;14.50;7.77;;;;;;;0.91;76.38;99161.41;5008799;28;20239;-67
2022/01/06 07:08:02;;;;;;;13.93;8.03;;;;;;;2.55;71.38;99116.16;5007912;28;21072;-67
2022/01/06 07:10:29;;;;;;;16.17;7.87;;;;;;;2.95;68.38;99104.66;5008699;28;20238;-67
2022/01/06 07:12:56;;;;;;;18.93;8.97;;;;;;;2.06;72.42;99158.09;5008080;28;20231;-67
2022/01/06 07:15:23;;;;;;;11.23;7.33;;;;;;;0.49;77.35;99160.41;5008345;28;20235;-67
2022/01/06 07:17:50;;;;;;;11.47;8.20;;;;;;;2.44;72.93;99140.75;5008310;28;20472;-67
2022/01/06 07:20:17;;;;;;;15.17;8.50;;;;;;;3.54;67.75;99094.91;5008034;28;20216;-67
2022/01/06 07:22:44;;;;;;;17.33;9.00;;;;;;;4.13;64.97;99083.19;5004422;28;20255;-67
2022/01/06 07:25:11;;;;;;;12.73;8.00;;;;;;;4.33;64.67;99091.84;5007024;28;20955;-67
2022/01/06 07:27:38;;;;;;;19.80;10.37;;;;;;;3.89;65.64;99122.44;5008314;28;20237;-67
2022/01/06 07:30:05;;;;;;;16.43;9.23;;;;;;;4.96;63.03;99089.34;5005937;28;20234;-67
2022/01/06 07:32:50;;;;;;;19.27;10.40;;;;;;;4.41;63.29;99100.81;5005583;28;20240;-67
2022/01/06 07:35:21;;;;;;;17.17;10.37;;;;;;;4.87;62.29;99094.53;5022213;28;20228;-67
2022/01/06 07:37:49;;;;;;;13.23;8.97;;;;;;;4.42;63.14;99121.81;5006623;28;20260;-67
2022/01/06 07:40:16;;;;;;;17.47;9.10;;;;;;;5.18;61.48;99110.03;5007935;28;20228;-67
2022/01/06 07:42:43;;;;;;;15.57;9.10;;;;;;;3.88;65.22;99178.84;5006192;28;20243;-67
2022/01/06 07:45:10;;;;;;;13.23;8.37;;;;;;;4.05;64.78;99178.09;5008100;28;20841;-67
2022/01/06 07:47:44;;;;;;;15.13;8.50;;;;;;;3.58;66.92;99194.72;5007163;28;20235;-67
2022/01/06 07:50:11;;;;;;;16.33;10.10;;;;;;;4.03;65.51;99195.03;5007737;28;20225;-67
2022/01/06 07:52:38;;;;;;;19.53;11.50;;;;;;;3.53;65.93;99186.38;5006586;28;20991;-67
2022/01/06 07:55:05;;;;;;;16.73;8.57;;;;;;;4.78;63.50;99176.53;5007961;28;20229;-67
2022/01/06 07:57:32;;;;;;;16.33;8.90;;;;;;;5.02;62.03;99160.09;5007626;28;20233;-67
2022/01/06 07:59:59;;;;;;;14.33;10.47;;;;;;;4.57;63.51;99179.41;5007086;28;20232;-67
2022/01/06 08:02:26;;;;;;;14.53;8.70;;;;;;;4.52;64.02;99188.59;5006973;28;21012;-66
2022/01/06 08:04:53;;;;;;;16.47;8.80;;;;;;;3.80;67.07;99235.78;5007297;28;20237;-67
2022/01/06 08:07:20;;;;;;;14.30;7.87;;;;;;;1.92;71.52;99241.66;5005009;28;20236;-67
2022/01/06 08:09:47;;;;;;;18.47;9.00;;;;;;;4.37;65.42;99200.63;5014652;28;20220;-67
2022/01/06 08:12:14;;;;;;;12.97;9.67;;;;;;;1.31;73.20;99223.00;4999053;28;20221;-67
2022/01/06 08:14:41;;;;;;;15.20;9.30;;;;;;;4.28;66.00;99207.63;5007384;28;20233;-67
2022/01/06 08:17:08;;;;;;;17.30;9.13;;;;;;;4.79;63.57;99176.38;5004533;28;20240;-67
2022/01/06 08:19:35;;;;;;;15.50;9.07;;;;;;;4.38;62.84;99181.16;5005422;28;20233;-67
2022/01/06 08:22:02;;;;;;;12.63;9.23;;;;;;;4.47;63.15;99177.66;5004081;28;20240;-67
2022/01/06 08:24:29;;;;;;;16.43;9.63;;;;;;;4.57;63.80;99200.53;5005724;28;20239;-67
2022/01/06 08:26:56;;;;;;;18.63;10.97;;;;;;;4.22;64.63;99213.47;5006955;28;20237;-67
2022/01/06 08:29:23;;;;;;;14.47;9.67;;;;;;;4.61;63.92;99197.47;5006919;28;20230;-67
2022/01/06 08:31:50;;;;;;;13.17;9.57;;;;;;;4.57;63.53;99205.81;5005932;28;20221;-67
2022/01/06 08:34:17;;;;;;;12.83;8.80;;;;;;;2.76;68.81;99245.09;5006292;28;20229;-67
2022/01/06 08:36:44;;;;;;;15.77;10.30;;;;;;;3.81;66.12;99231.34;5006840;28;20241;-67
2022/01/06 08:39:11;;;;;;;18.27;10.77;;;;;;;4.65;63.19;99203.28;5007197;28;20248;-67
2022/01/06 08:41:39;;;;;;;19.17;10.80;;;;;;;4.33;64.36;99215.94;5007235;28;21062;-67
2022/01/06 08:44:06;;;;;;;13.40;10.70;;;;;;;4.80;63.00;99206.25;5006369;28;20236;-67
2022/01/06 08:46:33;;;;;;;16.07;9.80;;;;;;;4.49;64.09;99231.16;5005461;28;20229;-67
2022/01/06 08:49:02;;;;;;;14.67;9.60;;;;;;;4.11;64.56;99245.31;5006839;28;20900;-67
2022/01/06 08:51:29;;;;;;;12.20;8.77;;;;;;;3.85;66.00;99259.09;5007157;28;20220;-67
2022/01/06 08:53:56;;;;;;;16.03;9.67;;;;;;;4.57;63.82;99234.88;5006681;28;20225;-67
2022/01/06 08:56:23;;;;;;;15.87;9.37;;;;;;;4.54;63.17;99220.97;5005956;28;20228;-67
2022/01/06 08:58:50;;;;;;;14.03;9.70;;;;;;;4.06;65.08;99258.09;5005424;28;20236;-67
2022/01/06 09:01:17;;;;;;;14.57;9.83;;;;;;;4.72;62.95;99228.13;5005533;28;20243;-67
2022/01/06 09:03:44;;;;;;;17.17;9.97;;;;;;;4.99;62.71;99226.47;5022294;28;20242;-67
2022/01/06 09:06:11;;;;;;;15.70;9.43;;;;;;;5.34;61.11;99216.94;5026163;28;20256;-67
2022/01/06 09:08:38;;;;;;;18.63;9.93;;;;;;;3.95;64.30;99238.00;5013122;28;20618;-67
2022/01/06 09:11:05;;;;;;;15.10;9.73;;;;;;;4.06;65.06;99260.75;5005269;28;20612;-67
2022/01/06 09:13:32;;;;;;;18.83;13.50;;;;;;;4.55;64.11;99250.88;5004686;28;20259;-67
2022/01/06 09:16:03;;;;;;;20.93;13.60;;;;;;;4.71;63.89;99239.69;5007048;28;20221;-67
2022/01/06 09:18:29;;;;;;;17.03;13.40;;;;;;;5.36;62.40;99244.03;4998844;28;20233;-67
2022/01/06 09:20:56;;;;;;;15.37;10.43;;;;;;;4.93;63.46;99253.53;5006580;28;20224;-67
2022/01/06 09:23:23;;;;;;;13.47;11.97;;;;;;;5.21;62.33;99235.78;5004147;28;20225;-67
2022/01/06 09:25:50;;;;;;;16.03;10.50;;;;;;;5.20;62.42;99234.97;5016386;28;20246;-67
2022/01/06 09:28:17;;;;;;;13.80;10.13;;;;;;;4.34;65.04;99274.84;5006404;28;20220;-67
2022/01/06 09:30:44;;;;;;;17.33;12.67;;;;;;;4.71;63.53;99258.19;5006265;28;20235;-67
2022/01/06 09:33:13;;;;;;;13.77;8.87;;;;;;;4.17;65.20;99290.44;5006451;28;20229;-67
2022/01/06 09:35:40;;;;;;;21.13;17.83;;;;;;;4.90;63.35;99255.44;5006280;28;20237;-67
2022/01/06 09:38:07;;;;;;;21.30;14.93;;;;;;;4.69;64.18;99268.06;5006516;28;20773;-67
2022/01/06 09:40:41;;;;;;;15.47;10.83;;;;;;;4.93;63.12;99253.53;5002111;28;21859;-67
2022/01/06 09:43:11;;;;;;;20.23;10.40;;;;;;;5.00;62.88;99255.41;5004449;28;20229;-67
2022/01/06 09:45:41;;;;;;;13.83;9.40;;;;;;;5.27;62.07;99257.19;5008756;28;20229;-67
2022/01/06 09:48:08;;;;;;;13.03;9.50;;;;;;;5.68;60.45;99256.75;5011337;28;20725;-67
2022/01/06 09:50:42;;;;;;;13.67;8.60;;;;;;;5.89;60.17;99263.56;5008357;28;20224;-67
2022/01/06 09:53:12;;;;;;;15.37;9.40;;;;;;;5.98;59.92;99266.09;5009497;28;20799;-67
2022/01/06 09:55:42;;;;;;;11.80;7.83;;;;;;;5.04;63.45;99308.81;5010265;28;20229;-67
2022/01/06 09:58:09;;;;;;;13.10;7.63;;;;;;;5.67;61.07;99270.16;5009803;28;20233;-67
2022/01/06 10:00:36;;;;;;;13.57;7.53;;;;;;;6.25;59.12;99252.88;5009537;28;20221;-67
2022/01/06 10:03:06;;;;;;;16.57;8.10;;;;;;;5.80;60.32;99242.31;5009010;28;20672;-67
2022/01/06 10:05:41;;;;;;;13.47;7.23;;;;;;;5.86;60.79;99263.84;5010152;28;20220;-67
2022/01/06 10:08:10;;;;;;;15.87;7.80;;;;;;;5.61;61.44;99287.44;5009876;28;20228;-67
2022/01/06 10:10:38;;;;;;;16.13;8.20;;;;;;;5.80;59.76;99258.19;5009312;28;20233;-67
2022/01/06 10:13:09;;;;;;;16.57;7.03;;;;;;;5.60;60.44;99262.81;5009834;28;20229;-67
2022/01/06 10:15:38;;;;;;;17.73;7.47;;;;;;;5.43;61.12;99292.75;5007943;28;20605;-67
2022/01/06 10:18:13;;;;;;;12.10;6.30;;;;;;;5.21;61.18;99308.03;5007963;28;20234;-67
2022/01/06 10:20:40;;;;;;;11.03;6.40;;;;;;;5.76;59.35;99288.56;5008660;28;21602;-67
2022/01/06 10:23:13;;;;;;;8.93;6.20;;;;;;;5.61;59.36;99274.22;5007115;28;20233;-67
2022/01/06 10:25:49;;;;;;;15.80;7.17;;;;;;;5.69;59.63;99282.22;5008144;28;20225;-67
2022/01/06 10:28:23;;;;;;;10.43;6.63;;;;;;;5.97;59.52;99272.38;5008345;28;20264;-67
2022/01/06 10:30:50;;;;;;;7.90;6.87;;;;;;;5.96;58.91;99269.88;5008381;28;20224;-67
2022/01/06 10:33:20;;;;;;;10.37;6.40;;;;;;;5.99;59.55;99278.34;5008609;28;20239;-67
2022/01/06 10:35:48;;;;;;;12.97;7.10;;;;;;;6.15;59.43;99277.66;5006426;28;20238;-67
2022/01/06 10:38:27;;;;;;;12.23;7.33;;;;;;;4.54;61.39;99276.47;5008934;28;20300;-67
2022/01/06 10:41:12;;;;;;;13.23;6.40;;;;;;;4.79;61.38;99313.78;5009359;28;21004;-67
2022/01/06 10:43:39;;;;;;;16.23;7.53;;;;;;;5.17;61.90;99319.06;5008300;28;20221;-67
2022/01/06 10:46:07;;;;;;;18.20;7.03;;;;;;;6.16;59.37;99283.78;5009595;28;20223;-67
2022/01/06 10:48:34;;;;;;;13.97;7.03;;;;;;;6.18;59.66;99289.72;5008047;28;20601;-67
2022/01/06 10:51:02;;;;;;;15.53;7.37;;;;;;;6.09;60.15;99290.69;5007200;28;20726;-67
2022/01/06 10:53:29;;;;;;;12.33;6.83;;;;;;;4.69;62.48;99326.19;5007625;28;20221;-67
2022/01/06 10:55:56;;;;;;;14.57;8.07;;;;;;;6.23;59.99;99295.41;5006950;28;20880;-67
2022/01/06 10:58:25;;;;;;;14.73;7.70;;;;;;;5.69;60.29;99300.75;5006570;28;20256;-67
2022/01/06 11:03:50;;;;;;;14.30;7.00;;;;;;;3.99;65.74;99363.41;5097261;27;20737;-68
2022/01/06 11:06:17;;;;;;;9.13;6.63;;;;;;;3.90;65.45;99351.88;5083506;28;20215;-67
2022/01/06 11:08:44;;;;;;;11.00;6.30;;;;;;;4.56;64.33;99349.44;5075672;28;20226;-67
2022/01/06 11:13:40;;;;;;;11.17;6.30;;;;;;;4.84;63.12;99316.00;5083604;28;20233;-67
2022/01/06 11:16:09;;;;;;;11.27;6.10;;;;;;;4.96;63.01;99327.25;5083279;28;20233;-67
2022/01/06 11:18:42;;;;;;;14.87;6.83;;;;;;;4.95;63.13;99323.75;5083580;28;20231;-67
2022/01/06 11:21:17;;;;;;;11.83;6.20;;;;;;;3.60;66.43;99373.91;5083516;28;20231;-67
2022/01/06 11:23:44;;;;;;;12.50;5.50;;;;;;;4.93;63.64;99333.63;5081674;28;20236;-67
2022/01/06 11:26:21;;;;;;;13.20;5.63;;;;;;;5.00;62.92;99307.47;5083196;28;20618;-67
2022/01/06 11:28:58;;;;;;;14.50;6.27;;;;;;;3.98;66.91;99356.47;5083660;28;21087;-67
2022/01/06 11:31:28;;;;;;;14.30;5.33;;;;;;;3.47;65.26;99339.88;5083612;28;20222;-67
2022/01/06 11:33:56;;;;;;;10.50;5.37;;;;;;;5.30;62.48;99303.69;5082774;28;20229;-67
2022/01/06 11:36:24;;;;;;;12.87;5.73;;;;;;;5.95;61.28;99295.53;5082804;28;20218;-67
2022/01/06 11:38:52;;;;;;;14.03;5.57;;;;;;;5.80;60.62;99279.34;5080730;28;20226;-67
2022/01/06 11:41:25;;;;;;;8.90;5.33;;;;;;;6.00;60.08;99274.72;5083690;28;20215;-67
2022/01/06 11:43:57;;;;;;;13.83;4.17;;;;;;;4.51;60.18;99319.00;5082147;28;20256;-67
2022/01/06 11:46:25;;;;;;;6.03;3.63;;;;;;;5.63;59.07;99291.63;5081827;28;20227;-67
2022/01/06 11:48:55;;;;;;;10.23;3.53;;;;;;;5.76;56.63;99277.97;5082720;28;21152;-67
2022/01/06 11:51:24;;;;;;;9.20;4.23;;;;;;;5.65;59.01;99292.28;5074476;28;20219;-67
2022/01/06 11:53:51;;;;;;;6.63;4.10;;;;;;;6.20;57.57;99279.81;5080655;28;20218;-68